sensor_id;sensor_type;location;lat;lon;timestamp;P1;durP1;ratioP1;P2;durP2;ratioP2
8490;SDS011;4282;49.986;7.938;2023-11-19T00:00:08;3.70;;;2.93;;
8490;SDS011;4282;49.986;7.938;2023-11-19T00:02:39;3.30;;;2.23;;
8490;SDS011;4282;49.986;7.938;2023-11-19T00:05:08;2.23;;;2.03;;
8490;SDS011;4282;49.986;7.938;2023-11-19T00:07:36;2.03;;;1.83;;
8490;SDS011;4282;49.986;7.938;2023-11-19T00:10:09;2.17;;;2.07;;
8490;SDS011;4282;49.986;7.938;2023-11-19T00:12:38;4.47;;;2.00;;
8490;SDS011;4282;49.986;7.938;2023-11-19T00:15:07;2.10;;;1.90;;
8490;SDS011;4282;49.986;7.938;2023-11-19T00:17:36;2.00;;;1.80;;
8490;SDS011;4282;49.986;7.938;2023-11-19T00:20:06;2.10;;;1.67;;
8490;SDS011;4282;49.986;7.938;2023-11-19T00:22:35;2.37;;;2.00;;
8490;SDS011;4282;49.986;7.938;2023-11-19T00:25:04;3.13;;;2.07;;
8490;SDS011;4282;49.986;7.938;2023-11-19T00:27:36;2.77;;;2.20;;
8490;SDS011;4282;49.986;7.938;2023-11-19T00:30:05;2.20;;;2.00;;
8490;SDS011;4282;49.986;7.938;2023-11-19T00:32:34;2.23;;;1.90;;
8490;SDS011;4282;49.986;7.938;2023-11-19T00:35:04;1.97;;;1.80;;
8490;SDS011;4282;49.986;7.938;2023-11-19T00:37:33;2.40;;;2.20;;
8490;SDS011;4282;49.986;7.938;2023-11-19T00:40:01;2.57;;;2.30;;
8490;SDS011;4282;49.986;7.938;2023-11-19T00:42:30;2.40;;;1.90;;
8490;SDS011;4282;49.986;7.938;2023-11-19T00:45:01;2.03;;;1.83;;
8490;SDS011;4282;49.986;7.938;2023-11-19T00:47:33;2.40;;;1.60;;
8490;SDS011;4282;49.986;7.938;2023-11-19T00:50:01;1.50;;;1.40;;
8490;SDS011;4282;49.986;7.938;2023-11-19T00:52:30;1.70;;;1.60;;
8490;SDS011;4282;49.986;7.938;2023-11-19T00:54:58;2.10;;;1.10;;
8490;SDS011;4282;49.986;7.938;2023-11-19T00:57:26;1.87;;;1.77;;
8490;SDS011;4282;49.986;7.938;2023-11-19T00:59:55;1.50;;;1.40;;
8490;SDS011;4282;49.986;7.938;2023-11-19T01:02:26;2.03;;;1.50;;
8490;SDS011;4282;49.986;7.938;2023-11-19T01:04:54;2.00;;;1.50;;
8490;SDS011;4282;49.986;7.938;2023-11-19T01:07:23;1.50;;;1.40;;
8490;SDS011;4282;49.986;7.938;2023-11-19T01:09:52;2.00;;;1.90;;
8490;SDS011;4282;49.986;7.938;2023-11-19T01:12:20;1.80;;;1.50;;
8490;SDS011;4282;49.986;7.938;2023-11-19T01:14:48;1.47;;;1.30;;
8490;SDS011;4282;49.986;7.938;2023-11-19T01:17:17;2.23;;;1.37;;
8490;SDS011;4282;49.986;7.938;2023-11-19T01:19:48;1.27;;;1.17;;
8490;SDS011;4282;49.986;7.938;2023-11-19T01:22:16;2.40;;;1.70;;
8490;SDS011;4282;49.986;7.938;2023-11-19T01:24:44;1.70;;;1.60;;
8490;SDS011;4282;49.986;7.938;2023-11-19T01:27:12;1.70;;;1.27;;
8490;SDS011;4282;49.986;7.938;2023-11-19T01:29:41;1.87;;;1.13;;
8490;SDS011;4282;49.986;7.938;2023-11-19T01:32:09;3.20;;;1.57;;
8490;SDS011;4282;49.986;7.938;2023-11-19T01:34:37;1.93;;;1.20;;
8490;SDS011;4282;49.986;7.938;2023-11-19T01:37:08;1.43;;;1.33;;
8490;SDS011;4282;49.986;7.938;2023-11-19T01:39:37;1.50;;;1.40;;
8490;SDS011;4282;49.986;7.938;2023-11-19T01:42:06;2.97;;;1.60;;
8490;SDS011;4282;49.986;7.938;2023-11-19T01:44:34;1.53;;;1.43;;
8490;SDS011;4282;49.986;7.938;2023-11-19T01:47:03;1.13;;;1.03;;
8490;SDS011;4282;49.986;7.938;2023-11-19T01:49:31;1.40;;;1.27;;
8490;SDS011;4282;49.986;7.938;2023-11-19T01:52:00;1.93;;;1.10;;
8490;SDS011;4282;49.986;7.938;2023-11-19T01:54:31;1.40;;;1.30;;
8490;SDS011;4282;49.986;7.938;2023-11-19T01:56:59;1.73;;;1.10;;
8490;SDS011;4282;49.986;7.938;2023-11-19T01:59:27;1.57;;;1.23;;
8490;SDS011;4282;49.986;7.938;2023-11-19T02:01:55;1.27;;;1.17;;
8490;SDS011;4282;49.986;7.938;2023-11-19T02:04:24;1.43;;;1.33;;
8490;SDS011;4282;49.986;7.938;2023-11-19T02:06:53;1.93;;;1.53;;
8490;SDS011;4282;49.986;7.938;2023-11-19T02:09:22;1.70;;;1.60;;
8490;SDS011;4282;49.986;7.938;2023-11-19T02:11:52;2.47;;;1.30;;
8490;SDS011;4282;49.986;7.938;2023-11-19T02:14:22;1.63;;;1.53;;
8490;SDS011;4282;49.986;7.938;2023-11-19T02:16:52;2.37;;;1.30;;
8490;SDS011;4282;49.986;7.938;2023-11-19T02:19:18;1.57;;;1.13;;
8490;SDS011;4282;49.986;7.938;2023-11-19T02:21:47;1.50;;;1.40;;
8490;SDS011;4282;49.986;7.938;2023-11-19T02:24:16;1.60;;;1.00;;
8490;SDS011;4282;49.986;7.938;2023-11-19T02:26:53;1.40;;;1.30;;
8490;SDS011;4282;49.986;7.938;2023-11-19T02:29:28;3.93;;;1.00;;
8490;SDS011;4282;49.986;7.938;2023-11-19T02:31:57;1.57;;;1.20;;
8490;SDS011;4282;49.986;7.938;2023-11-19T02:34:25;1.17;;;1.07;;
8490;SDS011;4282;49.986;7.938;2023-11-19T02:36:53;1.33;;;1.23;;
8490;SDS011;4282;49.986;7.938;2023-11-19T02:39:22;1.37;;;1.27;;
8490;SDS011;4282;49.986;7.938;2023-11-19T02:41:51;0.87;;;0.83;;
8490;SDS011;4282;49.986;7.938;2023-11-19T02:44:19;1.27;;;1.17;;
8490;SDS011;4282;49.986;7.938;2023-11-19T02:46:51;1.33;;;1.23;;
8490;SDS011;4282;49.986;7.938;2023-11-19T02:49:19;1.33;;;1.23;;
8490;SDS011;4282;49.986;7.938;2023-11-19T02:51:47;2.33;;;1.60;;
8490;SDS011;4282;49.986;7.938;2023-11-19T02:54:15;1.60;;;1.50;;
8490;SDS011;4282;49.986;7.938;2023-11-19T02:56:44;2.20;;;1.57;;
8490;SDS011;4282;49.986;7.938;2023-11-19T02:59:20;1.67;;;1.30;;
8490;SDS011;4282;49.986;7.938;2023-11-19T03:01:55;1.63;;;1.30;;
8490;SDS011;4282;49.986;7.938;2023-11-19T03:04:24;2.77;;;1.00;;
8490;SDS011;4282;49.986;7.938;2023-11-19T03:06:53;1.83;;;1.33;;
8490;SDS011;4282;49.986;7.938;2023-11-19T03:09:23;2.63;;;1.47;;
8490;SDS011;4282;49.986;7.938;2023-11-19T03:11:51;1.43;;;1.17;;
8490;SDS011;4282;49.986;7.938;2023-11-19T03:14:19;2.33;;;1.17;;
8490;SDS011;4282;49.986;7.938;2023-11-19T03:16:48;1.73;;;1.20;;
8490;SDS011;4282;49.986;7.938;2023-11-19T03:19:19;1.20;;;1.10;;
8490;SDS011;4282;49.986;7.938;2023-11-19T03:21:47;2.33;;;1.20;;
8490;SDS011;4282;49.986;7.938;2023-11-19T03:24:15;1.47;;;1.37;;
8490;SDS011;4282;49.986;7.938;2023-11-19T03:26:48;1.90;;;1.30;;
8490;SDS011;4282;49.986;7.938;2023-11-19T03:29:17;1.40;;;1.30;;
8490;SDS011;4282;49.986;7.938;2023-11-19T03:31:45;1.40;;;1.30;;
8490;SDS011;4282;49.986;7.938;2023-11-19T03:34:13;1.50;;;1.30;;
8490;SDS011;4282;49.986;7.938;2023-11-19T03:36:44;1.33;;;1.20;;
8490;SDS011;4282;49.986;7.938;2023-11-19T03:39:14;1.70;;;1.40;;
8490;SDS011;4282;49.986;7.938;2023-11-19T03:41:45;1.33;;;1.23;;
8490;SDS011;4282;49.986;7.938;2023-11-19T03:44:14;2.67;;;1.20;;
8490;SDS011;4282;49.986;7.938;2023-11-19T03:46:43;1.37;;;1.17;;
8490;SDS011;4282;49.986;7.938;2023-11-19T03:49:11;1.33;;;1.07;;
8490;SDS011;4282;49.986;7.938;2023-11-19T03:51:39;1.67;;;1.00;;
8490;SDS011;4282;49.986;7.938;2023-11-19T03:54:10;6.37;;;1.67;;
8490;SDS011;4282;49.986;7.938;2023-11-19T03:56:39;0.90;;;0.90;;
8490;SDS011;4282;49.986;7.938;2023-11-19T03:59:07;1.30;;;1.20;;
8490;SDS011;4282;49.986;7.938;2023-11-19T04:01:35;1.10;;;1.10;;
8490;SDS011;4282;49.986;7.938;2023-11-19T04:04:04;2.30;;;1.07;;
8490;SDS011;4282;49.986;7.938;2023-11-19T04:06:32;2.27;;;1.20;;
8490;SDS011;4282;49.986;7.938;2023-11-19T04:09:00;0.93;;;0.90;;
8490;SDS011;4282;49.986;7.938;2023-11-19T04:11:31;1.67;;;1.30;;
8490;SDS011;4282;49.986;7.938;2023-11-19T04:14:00;1.93;;;1.40;;
8490;SDS011;4282;49.986;7.938;2023-11-19T04:16:28;1.70;;;1.20;;
8490;SDS011;4282;49.986;7.938;2023-11-19T04:18:56;2.53;;;1.13;;
8490;SDS011;4282;49.986;7.938;2023-11-19T04:21:24;1.40;;;1.00;;
8490;SDS011;4282;49.986;7.938;2023-11-19T04:23:53;1.43;;;1.30;;
8490;SDS011;4282;49.986;7.938;2023-11-19T04:26:21;1.27;;;1.17;;
8490;SDS011;4282;49.986;7.938;2023-11-19T04:28:52;3.33;;;1.60;;
8490;SDS011;4282;49.986;7.938;2023-11-19T04:31:20;1.90;;;1.20;;
8490;SDS011;4282;49.986;7.938;2023-11-19T04:33:48;3.00;;;1.30;;
8490;SDS011;4282;49.986;7.938;2023-11-19T04:36:19;1.33;;;1.10;;
8490;SDS011;4282;49.986;7.938;2023-11-19T04:38:49;3.83;;;1.53;;
8490;SDS011;4282;49.986;7.938;2023-11-19T04:41:17;1.80;;;1.50;;
8490;SDS011;4282;49.986;7.938;2023-11-19T04:43:46;2.20;;;1.60;;
8490;SDS011;4282;49.986;7.938;2023-11-19T04:46:17;2.13;;;1.60;;
8490;SDS011;4282;49.986;7.938;2023-11-19T04:48:45;4.17;;;1.90;;
8490;SDS011;4282;49.986;7.938;2023-11-19T04:51:13;4.73;;;1.80;;
8490;SDS011;4282;49.986;7.938;2023-11-19T04:53:41;3.23;;;1.70;;
8490;SDS011;4282;49.986;7.938;2023-11-19T04:56:10;1.87;;;1.40;;
8490;SDS011;4282;49.986;7.938;2023-11-19T04:58:40;1.67;;;1.10;;
8490;SDS011;4282;49.986;7.938;2023-11-19T05:01:12;1.10;;;1.00;;
8490;SDS011;4282;49.986;7.938;2023-11-19T05:03:44;3.67;;;1.40;;
8490;SDS011;4282;49.986;7.938;2023-11-19T05:06:13;1.40;;;1.30;;
8490;SDS011;4282;49.986;7.938;2023-11-19T05:08:41;2.77;;;2.23;;
8490;SDS011;4282;49.986;7.938;2023-11-19T05:11:09;1.83;;;1.60;;
8490;SDS011;4282;49.986;7.938;2023-11-19T05:13:42;2.97;;;1.70;;
8490;SDS011;4282;49.986;7.938;2023-11-19T05:16:11;1.30;;;1.20;;
8490;SDS011;4282;49.986;7.938;2023-11-19T05:18:40;2.77;;;1.80;;
8490;SDS011;4282;49.986;7.938;2023-11-19T05:21:11;1.57;;;1.40;;
8490;SDS011;4282;49.986;7.938;2023-11-19T05:23:40;1.43;;;1.20;;
8490;SDS011;4282;49.986;7.938;2023-11-19T05:26:08;1.47;;;1.27;;
8490;SDS011;4282;49.986;7.938;2023-11-19T05:28:37;1.60;;;1.30;;
8490;SDS011;4282;49.986;7.938;2023-11-19T05:31:05;2.00;;;1.40;;
8490;SDS011;4282;49.986;7.938;2023-11-19T05:33:34;1.93;;;1.60;;
8490;SDS011;4282;49.986;7.938;2023-11-19T05:36:02;1.53;;;1.27;;
8490;SDS011;4282;49.986;7.938;2023-11-19T05:38:35;1.30;;;1.20;;
8490;SDS011;4282;49.986;7.938;2023-11-19T05:41:04;2.33;;;1.30;;
8490;SDS011;4282;49.986;7.938;2023-11-19T05:43:33;2.93;;;1.73;;
8490;SDS011;4282;49.986;7.938;2023-11-19T05:46:02;1.73;;;1.60;;
8490;SDS011;4282;49.986;7.938;2023-11-19T05:48:31;1.57;;;1.37;;
8490;SDS011;4282;49.986;7.938;2023-11-19T05:51:00;2.57;;;1.67;;
8490;SDS011;4282;49.986;7.938;2023-11-19T05:53:28;3.50;;;2.00;;
8490;SDS011;4282;49.986;7.938;2023-11-19T05:55:59;2.57;;;1.70;;
8490;SDS011;4282;49.986;7.938;2023-11-19T05:58:29;2.13;;;1.70;;
8490;SDS011;4282;49.986;7.938;2023-11-19T06:00:58;1.73;;;1.63;;
8490;SDS011;4282;49.986;7.938;2023-11-19T06:03:28;2.50;;;2.10;;
8490;SDS011;4282;49.986;7.938;2023-11-19T06:05:56;2.47;;;1.87;;
8490;SDS011;4282;49.986;7.938;2023-11-19T06:08:24;5.03;;;3.83;;
8490;SDS011;4282;49.986;7.938;2023-11-19T06:10:53;4.87;;;3.73;;
8490;SDS011;4282;49.986;7.938;2023-11-19T06:13:24;4.37;;;3.17;;
8490;SDS011;4282;49.986;7.938;2023-11-19T06:15:52;3.67;;;2.60;;
8490;SDS011;4282;49.986;7.938;2023-11-19T06:18:20;3.00;;;2.60;;
8490;SDS011;4282;49.986;7.938;2023-11-19T06:20:48;3.73;;;2.63;;
8490;SDS011;4282;49.986;7.938;2023-11-19T06:23:17;4.43;;;2.00;;
8490;SDS011;4282;49.986;7.938;2023-11-19T06:25:45;2.40;;;1.87;;
8490;SDS011;4282;49.986;7.938;2023-11-19T06:28:14;1.97;;;1.77;;
8490;SDS011;4282;49.986;7.938;2023-11-19T06:30:44;2.37;;;1.80;;
8490;SDS011;4282;49.986;7.938;2023-11-19T06:33:13;3.30;;;1.53;;
8490;SDS011;4282;49.986;7.938;2023-11-19T06:35:41;3.00;;;1.87;;
8490;SDS011;4282;49.986;7.938;2023-11-19T06:38:10;1.87;;;1.63;;
8490;SDS011;4282;49.986;7.938;2023-11-19T06:40:38;2.63;;;1.70;;
8490;SDS011;4282;49.986;7.938;2023-11-19T06:43:07;1.50;;;1.33;;
8490;SDS011;4282;49.986;7.938;2023-11-19T06:45:36;4.17;;;1.53;;
8490;SDS011;4282;49.986;7.938;2023-11-19T06:48:07;1.47;;;1.37;;
8490;SDS011;4282;49.986;7.938;2023-11-19T06:50:36;2.07;;;1.53;;
8490;SDS011;4282;49.986;7.938;2023-11-19T06:53:04;2.53;;;1.80;;
8490;SDS011;4282;49.986;7.938;2023-11-19T06:55:35;2.67;;;2.33;;
8490;SDS011;4282;49.986;7.938;2023-11-19T06:58:05;3.67;;;2.70;;
8490;SDS011;4282;49.986;7.938;2023-11-19T07:00:33;4.33;;;2.83;;
8490;SDS011;4282;49.986;7.938;2023-11-19T07:03:02;3.00;;;2.70;;
8490;SDS011;4282;49.986;7.938;2023-11-19T07:05:36;4.00;;;3.40;;
8490;SDS011;4282;49.986;7.938;2023-11-19T07:08:05;4.47;;;3.57;;
8490;SDS011;4282;49.986;7.938;2023-11-19T07:10:35;5.30;;;3.87;;
8490;SDS011;4282;49.986;7.938;2023-11-19T07:13:03;6.07;;;4.00;;
8490;SDS011;4282;49.986;7.938;2023-11-19T07:15:31;4.47;;;3.77;;
8490;SDS011;4282;49.986;7.938;2023-11-19T07:18:00;8.03;;;6.43;;
8490;SDS011;4282;49.986;7.938;2023-11-19T07:20:28;7.67;;;4.73;;
8490;SDS011;4282;49.986;7.938;2023-11-19T07:23:00;7.33;;;6.53;;
8490;SDS011;4282;49.986;7.938;2023-11-19T07:25:28;5.10;;;4.13;;
8490;SDS011;4282;49.986;7.938;2023-11-19T07:27:57;3.47;;;2.90;;
8490;SDS011;4282;49.986;7.938;2023-11-19T07:30:25;4.00;;;2.70;;
8490;SDS011;4282;49.986;7.938;2023-11-19T07:32:53;3.17;;;2.43;;
8490;SDS011;4282;49.986;7.938;2023-11-19T07:35:22;5.50;;;4.40;;
8490;SDS011;4282;49.986;7.938;2023-11-19T07:37:48;9.77;;;7.67;;
8490;SDS011;4282;49.986;7.938;2023-11-19T07:40:19;11.00;;;9.83;;
8490;SDS011;4282;49.986;7.938;2023-11-19T07:42:47;8.83;;;7.70;;
8490;SDS011;4282;49.986;7.938;2023-11-19T07:45:15;7.23;;;6.60;;
8490;SDS011;4282;49.986;7.938;2023-11-19T07:47:44;5.60;;;5.10;;
8490;SDS011;4282;49.986;7.938;2023-11-19T07:50:12;4.87;;;4.40;;
8490;SDS011;4282;49.986;7.938;2023-11-19T07:52:42;6.00;;;5.47;;
8490;SDS011;4282;49.986;7.938;2023-11-19T07:55:10;5.93;;;4.13;;
8490;SDS011;4282;49.986;7.938;2023-11-19T07:57:41;4.80;;;3.37;;
8490;SDS011;4282;49.986;7.938;2023-11-19T08:00:10;3.97;;;3.23;;
8490;SDS011;4282;49.986;7.938;2023-11-19T08:02:40;4.20;;;3.80;;
8490;SDS011;4282;49.986;7.938;2023-11-19T08:05:08;4.03;;;3.50;;
8490;SDS011;4282;49.986;7.938;2023-11-19T08:07:37;4.53;;;3.60;;
8490;SDS011;4282;49.986;7.938;2023-11-19T08:10:05;4.30;;;3.30;;
8490;SDS011;4282;49.986;7.938;2023-11-19T08:12:35;4.30;;;3.83;;
8490;SDS011;4282;49.986;7.938;2023-11-19T08:15:06;5.23;;;4.40;;
8490;SDS011;4282;49.986;7.938;2023-11-19T08:17:35;4.83;;;4.07;;
8490;SDS011;4282;49.986;7.938;2023-11-19T08:20:04;4.00;;;3.60;;
8490;SDS011;4282;49.986;7.938;2023-11-19T08:22:35;6.13;;;3.43;;
8490;SDS011;4282;49.986;7.938;2023-11-19T08:25:04;4.00;;;3.10;;
8490;SDS011;4282;49.986;7.938;2023-11-19T08:27:33;5.10;;;3.30;;
8490;SDS011;4282;49.986;7.938;2023-11-19T08:30:01;4.17;;;3.17;;
8490;SDS011;4282;49.986;7.938;2023-11-19T08:32:33;4.10;;;2.90;;
8490;SDS011;4282;49.986;7.938;2023-11-19T08:35:02;3.50;;;3.10;;
8490;SDS011;4282;49.986;7.938;2023-11-19T08:37:30;3.63;;;3.10;;
8490;SDS011;4282;49.986;7.938;2023-11-19T08:39:59;3.70;;;3.00;;
8490;SDS011;4282;49.986;7.938;2023-11-19T08:42:28;3.77;;;2.63;;
8490;SDS011;4282;49.986;7.938;2023-11-19T08:44:56;3.43;;;2.47;;
8490;SDS011;4282;49.986;7.938;2023-11-19T08:47:24;3.17;;;2.73;;
8490;SDS011;4282;49.986;7.938;2023-11-19T08:49:55;3.47;;;2.37;;
8490;SDS011;4282;49.986;7.938;2023-11-19T08:52:23;2.40;;;1.97;;
8490;SDS011;4282;49.986;7.938;2023-11-19T08:54:52;6.60;;;2.37;;
8490;SDS011;4282;49.986;7.938;2023-11-19T08:57:20;4.57;;;2.10;;
8490;SDS011;4282;49.986;7.938;2023-11-19T08:59:48;3.60;;;2.37;;
8490;SDS011;4282;49.986;7.938;2023-11-19T09:02:17;4.27;;;1.97;;
8490;SDS011;4282;49.986;7.938;2023-11-19T09:04:45;3.60;;;2.53;;
8490;SDS011;4282;49.986;7.938;2023-11-19T09:07:16;3.47;;;2.20;;
8490;SDS011;4282;49.986;7.938;2023-11-19T09:09:45;3.70;;;2.50;;
8490;SDS011;4282;49.986;7.938;2023-11-19T09:12:13;4.97;;;2.63;;
8490;SDS011;4282;49.986;7.938;2023-11-19T09:14:41;6.00;;;2.80;;
8490;SDS011;4282;49.986;7.938;2023-11-19T09:17:11;5.13;;;2.73;;
8490;SDS011;4282;49.986;7.938;2023-11-19T09:19:39;7.53;;;2.30;;
8490;SDS011;4282;49.986;7.938;2023-11-19T09:22:07;4.60;;;2.17;;
8490;SDS011;4282;49.986;7.938;2023-11-19T09:24:38;6.07;;;2.50;;
8490;SDS011;4282;49.986;7.938;2023-11-19T09:27:09;7.43;;;2.27;;
8490;SDS011;4282;49.986;7.938;2023-11-19T09:29:37;8.37;;;2.40;;
8490;SDS011;4282;49.986;7.938;2023-11-19T09:32:06;6.47;;;2.03;;
8490;SDS011;4282;49.986;7.938;2023-11-19T09:34:34;9.73;;;2.73;;
8490;SDS011;4282;49.986;7.938;2023-11-19T09:37:03;7.07;;;2.50;;
8490;SDS011;4282;49.986;7.938;2023-11-19T09:39:31;8.50;;;2.60;;
8490;SDS011;4282;49.986;7.938;2023-11-19T09:42:02;6.03;;;1.90;;
8490;SDS011;4282;49.986;7.938;2023-11-19T09:44:31;9.30;;;2.33;;
8490;SDS011;4282;49.986;7.938;2023-11-19T09:47:00;3.43;;;1.87;;
8490;SDS011;4282;49.986;7.938;2023-11-19T09:49:28;6.40;;;1.83;;
8490;SDS011;4282;49.986;7.938;2023-11-19T09:51:56;6.87;;;2.23;;
8490;SDS011;4282;49.986;7.938;2023-11-19T09:54:25;7.77;;;2.47;;
8490;SDS011;4282;49.986;7.938;2023-11-19T09:56:53;7.77;;;2.30;;
8490;SDS011;4282;49.986;7.938;2023-11-19T09:59:27;6.43;;;1.90;;
8490;SDS011;4282;49.986;7.938;2023-11-19T10:01:55;4.87;;;2.10;;
8490;SDS011;4282;49.986;7.938;2023-11-19T10:04:24;6.80;;;2.70;;
8490;SDS011;4282;49.986;7.938;2023-11-19T10:06:53;6.47;;;2.20;;
8490;SDS011;4282;49.986;7.938;2023-11-19T10:09:22;5.00;;;2.13;;
8490;SDS011;4282;49.986;7.938;2023-11-19T10:11:50;7.30;;;2.13;;
8490;SDS011;4282;49.986;7.938;2023-11-19T10:14:19;5.97;;;2.10;;
8490;SDS011;4282;49.986;7.938;2023-11-19T10:16:52;4.20;;;2.10;;
8490;SDS011;4282;49.986;7.938;2023-11-19T10:19:20;8.57;;;2.03;;
8490;SDS011;4282;49.986;7.938;2023-11-19T10:21:49;7.53;;;2.77;;
8490;SDS011;4282;49.986;7.938;2023-11-19T10:24:17;9.03;;;2.10;;
8490;SDS011;4282;49.986;7.938;2023-11-19T10:26:59;6.30;;;1.70;;
8490;SDS011;4282;49.986;7.938;2023-11-19T10:29:29;8.27;;;2.07;;
8490;SDS011;4282;49.986;7.938;2023-11-19T10:32:00;12.07;;;2.00;;
8490;SDS011;4282;49.986;7.938;2023-11-19T10:34:28;7.67;;;2.57;;
8490;SDS011;4282;49.986;7.938;2023-11-19T10:36:56;5.77;;;1.80;;
8490;SDS011;4282;49.986;7.938;2023-11-19T10:39:26;4.30;;;1.90;;
8490;SDS011;4282;49.986;7.938;2023-11-19T10:42:16;7.20;;;2.00;;
8490;SDS011;4282;49.986;7.938;2023-11-19T10:44:44;4.80;;;1.80;;
8490;SDS011;4282;49.986;7.938;2023-11-19T10:47:16;7.37;;;2.07;;
8490;SDS011;4282;49.986;7.938;2023-11-19T10:49:47;8.20;;;2.37;;
8490;SDS011;4282;49.986;7.938;2023-11-19T10:52:17;5.57;;;1.87;;
8490;SDS011;4282;49.986;7.938;2023-11-19T10:54:48;7.70;;;2.50;;
8490;SDS011;4282;49.986;7.938;2023-11-19T10:57:19;7.23;;;1.70;;
8490;SDS011;4282;49.986;7.938;2023-11-19T10:59:49;8.27;;;3.00;;
8490;SDS011;4282;49.986;7.938;2023-11-19T11:02:24;13.80;;;2.47;;
8490;SDS011;4282;49.986;7.938;2023-11-19T11:04:52;4.03;;;1.73;;
8490;SDS011;4282;49.986;7.938;2023-11-19T11:07:21;7.07;;;1.67;;
8490;SDS011;4282;49.986;7.938;2023-11-19T11:09:51;7.63;;;2.43;;
8490;SDS011;4282;49.986;7.938;2023-11-19T11:12:21;7.30;;;2.03;;
8490;SDS011;4282;49.986;7.938;2023-11-19T11:14:50;5.13;;;1.73;;
8490;SDS011;4282;49.986;7.938;2023-11-19T11:17:19;5.40;;;1.77;;
8490;SDS011;4282;49.986;7.938;2023-11-19T11:19:54;7.83;;;1.97;;
8490;SDS011;4282;49.986;7.938;2023-11-19T11:22:23;8.37;;;2.20;;
8490;SDS011;4282;49.986;7.938;2023-11-19T11:25:11;5.13;;;2.10;;
8490;SDS011;4282;49.986;7.938;2023-11-19T11:27:48;6.27;;;2.00;;
8490;SDS011;4282;49.986;7.938;2023-11-19T11:30:35;6.90;;;1.83;;
8490;SDS011;4282;49.986;7.938;2023-11-19T11:33:21;3.60;;;1.70;;
8490;SDS011;4282;49.986;7.938;2023-11-19T11:35:59;8.40;;;2.47;;
8490;SDS011;4282;49.986;7.938;2023-11-19T11:38:35;7.33;;;1.73;;
8490;SDS011;4282;49.986;7.938;2023-11-19T11:41:16;4.87;;;1.80;;
8490;SDS011;4282;49.986;7.938;2023-11-19T11:43:48;7.73;;;2.10;;
8490;SDS011;4282;49.986;7.938;2023-11-19T11:49:18;4.73;;;1.80;;
8490;SDS011;4282;49.986;7.938;2023-11-19T11:52:00;4.77;;;2.00;;
8490;SDS011;4282;49.986;7.938;2023-11-19T11:54:29;6.43;;;1.87;;
8490;SDS011;4282;49.986;7.938;2023-11-19T11:57:01;6.30;;;1.87;;
8490;SDS011;4282;49.986;7.938;2023-11-19T11:59:43;4.57;;;1.40;;
8490;SDS011;4282;49.986;7.938;2023-11-19T12:02:14;5.30;;;1.73;;
8490;SDS011;4282;49.986;7.938;2023-11-19T12:04:49;7.50;;;2.10;;
8490;SDS011;4282;49.986;7.938;2023-11-19T12:07:18;4.97;;;1.87;;
8490;SDS011;4282;49.986;7.938;2023-11-19T12:09:51;6.57;;;1.40;;
8490;SDS011;4282;49.986;7.938;2023-11-19T12:12:27;4.03;;;1.60;;
8490;SDS011;4282;49.986;7.938;2023-11-19T12:15:02;5.70;;;1.60;;
8490;SDS011;4282;49.986;7.938;2023-11-19T12:20:23;7.20;;;2.00;;
8490;SDS011;4282;49.986;7.938;2023-11-19T12:22:56;6.80;;;1.70;;
8490;SDS011;4282;49.986;7.938;2023-11-19T12:25:24;4.70;;;1.43;;
8490;SDS011;4282;49.986;7.938;2023-11-19T12:27:53;8.87;;;2.40;;
8490;SDS011;4282;49.986;7.938;2023-11-19T12:30:22;5.87;;;2.10;;
8490;SDS011;4282;49.986;7.938;2023-11-19T12:32:51;4.57;;;1.80;;
8490;SDS011;4282;49.986;7.938;2023-11-19T12:35:23;5.20;;;1.40;;
8490;SDS011;4282;49.986;7.938;2023-11-19T12:37:52;5.50;;;2.63;;
8490;SDS011;4282;49.986;7.938;2023-11-19T12:40:21;5.63;;;1.87;;
8490;SDS011;4282;49.986;7.938;2023-11-19T12:42:51;5.50;;;2.07;;
8490;SDS011;4282;49.986;7.938;2023-11-19T12:45:20;6.50;;;2.00;;
8490;SDS011;4282;49.986;7.938;2023-11-19T12:47:49;7.80;;;1.90;;
8490;SDS011;4282;49.986;7.938;2023-11-19T12:50:17;4.93;;;1.57;;
8490;SDS011;4282;49.986;7.938;2023-11-19T12:52:57;6.57;;;2.17;;
8490;SDS011;4282;49.986;7.938;2023-11-19T12:55:26;5.13;;;1.40;;
8490;SDS011;4282;49.986;7.938;2023-11-19T12:57:57;7.20;;;3.07;;
8490;SDS011;4282;49.986;7.938;2023-11-19T13:00:26;5.27;;;1.40;;
8490;SDS011;4282;49.986;7.938;2023-11-19T13:02:55;4.13;;;1.70;;
8490;SDS011;4282;49.986;7.938;2023-11-19T13:05:25;4.57;;;1.60;;
8490;SDS011;4282;49.986;7.938;2023-11-19T13:08:05;7.30;;;2.00;;
8490;SDS011;4282;49.986;7.938;2023-11-19T13:10:49;4.10;;;1.93;;
8490;SDS011;4282;49.986;7.938;2023-11-19T13:13:19;8.20;;;2.10;;
8490;SDS011;4282;49.986;7.938;2023-11-19T13:15:47;4.33;;;1.87;;
8490;SDS011;4282;49.986;7.938;2023-11-19T13:18:16;5.80;;;1.67;;
8490;SDS011;4282;49.986;7.938;2023-11-19T13:20:44;5.20;;;1.60;;
8490;SDS011;4282;49.986;7.938;2023-11-19T13:23:15;6.27;;;1.63;;
8490;SDS011;4282;49.986;7.938;2023-11-19T13:25:43;5.33;;;1.70;;
8490;SDS011;4282;49.986;7.938;2023-11-19T13:28:12;6.07;;;1.80;;
8490;SDS011;4282;49.986;7.938;2023-11-19T13:30:40;4.83;;;1.73;;
8490;SDS011;4282;49.986;7.938;2023-11-19T13:33:08;3.27;;;1.60;;
8490;SDS011;4282;49.986;7.938;2023-11-19T13:35:38;6.80;;;1.50;;
8490;SDS011;4282;49.986;7.938;2023-11-19T13:38:07;5.73;;;1.70;;
8490;SDS011;4282;49.986;7.938;2023-11-19T13:40:38;4.93;;;1.80;;
8490;SDS011;4282;49.986;7.938;2023-11-19T13:43:06;6.27;;;1.83;;
8490;SDS011;4282;49.986;7.938;2023-11-19T13:45:35;7.23;;;1.93;;
8490;SDS011;4282;49.986;7.938;2023-11-19T13:48:03;4.83;;;1.70;;
8490;SDS011;4282;49.986;7.938;2023-11-19T13:50:32;7.80;;;1.70;;
8490;SDS011;4282;49.986;7.938;2023-11-19T13:53:00;7.37;;;2.03;;
8490;SDS011;4282;49.986;7.938;2023-11-19T13:55:30;5.03;;;1.63;;
8490;SDS011;4282;49.986;7.938;2023-11-19T13:58:01;5.67;;;2.07;;
8490;SDS011;4282;49.986;7.938;2023-11-19T14:00:29;6.30;;;2.03;;
8490;SDS011;4282;49.986;7.938;2023-11-19T14:02:57;6.70;;;2.07;;
8490;SDS011;4282;49.986;7.938;2023-11-19T14:05:26;7.07;;;1.50;;
8490;SDS011;4282;49.986;7.938;2023-11-19T14:07:54;4.37;;;1.67;;
8490;SDS011;4282;49.986;7.938;2023-11-19T14:10:22;7.13;;;2.07;;
8490;SDS011;4282;49.986;7.938;2023-11-19T14:12:51;6.30;;;2.10;;
8490;SDS011;4282;49.986;7.938;2023-11-19T14:15:22;8.47;;;2.23;;
8490;SDS011;4282;49.986;7.938;2023-11-19T14:17:50;6.93;;;1.63;;
8490;SDS011;4282;49.986;7.938;2023-11-19T14:20:18;7.97;;;2.13;;
8490;SDS011;4282;49.986;7.938;2023-11-19T14:22:46;7.10;;;1.80;;
8490;SDS011;4282;49.986;7.938;2023-11-19T14:25:16;3.87;;;1.47;;
8490;SDS011;4282;49.986;7.938;2023-11-19T14:27:46;7.23;;;2.20;;
8490;SDS011;4282;49.986;7.938;2023-11-19T14:30:14;8.20;;;2.10;;
8490;SDS011;4282;49.986;7.938;2023-11-19T14:32:46;5.33;;;2.30;;
8490;SDS011;4282;49.986;7.938;2023-11-19T14:35:14;6.37;;;1.97;;
8490;SDS011;4282;49.986;7.938;2023-11-19T14:37:43;6.10;;;1.80;;
8490;SDS011;4282;49.986;7.938;2023-11-19T14:40:11;3.70;;;1.60;;
8490;SDS011;4282;49.986;7.938;2023-11-19T14:42:40;6.53;;;1.87;;
8490;SDS011;4282;49.986;7.938;2023-11-19T14:45:08;10.27;;;2.77;;
8490;SDS011;4282;49.986;7.938;2023-11-19T14:47:37;7.73;;;2.00;;
8490;SDS011;4282;49.986;7.938;2023-11-19T14:50:08;11.13;;;2.00;;
8490;SDS011;4282;49.986;7.938;2023-11-19T14:52:37;7.03;;;2.23;;
8490;SDS011;4282;49.986;7.938;2023-11-19T14:55:05;5.70;;;1.70;;
8490;SDS011;4282;49.986;7.938;2023-11-19T14:57:34;7.80;;;1.60;;
8490;SDS011;4282;49.986;7.938;2023-11-19T15:00:04;6.20;;;2.10;;
8490;SDS011;4282;49.986;7.938;2023-11-19T15:02:38;7.27;;;1.70;;
8490;SDS011;4282;49.986;7.938;2023-11-19T15:05:09;10.13;;;2.67;;
8490;SDS011;4282;49.986;7.938;2023-11-19T15:07:38;6.50;;;1.47;;
8490;SDS011;4282;49.986;7.938;2023-11-19T15:10:07;4.77;;;1.77;;
8490;SDS011;4282;49.986;7.938;2023-11-19T15:12:37;6.07;;;1.90;;
8490;SDS011;4282;49.986;7.938;2023-11-19T15:15:07;7.70;;;2.20;;
8490;SDS011;4282;49.986;7.938;2023-11-19T15:17:38;7.87;;;1.90;;
8490;SDS011;4282;49.986;7.938;2023-11-19T15:20:10;9.50;;;2.07;;
8490;SDS011;4282;49.986;7.938;2023-11-19T15:22:43;9.03;;;2.10;;
8490;SDS011;4282;49.986;7.938;2023-11-19T15:25:11;7.07;;;2.57;;
8490;SDS011;4282;49.986;7.938;2023-11-19T15:27:40;4.07;;;1.63;;
8490;SDS011;4282;49.986;7.938;2023-11-19T15:30:08;7.33;;;1.87;;
8490;SDS011;4282;49.986;7.938;2023-11-19T15:32:38;6.20;;;2.20;;
8490;SDS011;4282;49.986;7.938;2023-11-19T15:35:10;9.80;;;2.13;;